Time;durP1;ratioP1;P1;durP2;ratioP2;P2;SDS_P1;SDS_P2;PMS_P1;PMS_P2;Temp;Humidity;BMP_temperature;BMP_pressure;BME280_temperature;BME280_humidity;BME280_pressure;Samples;Min_cycle;Max_cycle;Signal;HPM_P1;HPM_P2
2022/06/05 00:00:31;;;;;;;0.70;0.20;;;21.70;1.00;;;;;;5010065;28;20663;-72
2022/06/05 00:03:14;;;;;;;0.90;0.23;;;21.70;1.00;;;;;;5018041;28;20440;-69
2022/06/05 00:05:49;;;;;;;0.70;0.20;;;21.70;1.00;;;;;;5023805;28;20789;-71
2022/06/05 00:08:26;;;;;;;0.70;0.10;;;21.70;1.00;;;;;;5002295;28;20807;-70
2022/06/05 00:10:57;;;;;;;0.70;0.20;;;21.60;1.00;;;;;;5011061;28;20942;-70
2022/06/05 00:13:32;;;;;;;0.70;0.20;;;21.60;1.00;;;;;;5011155;28;20802;-70
2022/06/05 00:16:01;;;;;;;0.70;0.20;;;21.60;1.00;;;;;;5002239;28;20946;-70
2022/06/05 00:18:33;;;;;;;0.70;0.20;;;21.50;1.00;;;;;;5010202;28;20539;-70
2022/06/05 00:21:01;;;;;;;0.70;0.10;;;21.50;1.00;;;;;;5009368;28;20444;-69
2022/06/05 00:23:30;;;;;;;0.70;0.10;;;21.50;1.00;;;;;;5013831;28;20553;-69
2022/06/05 00:26:07;;;;;;;0.70;0.20;;;21.50;1.00;;;;;;5014248;28;20443;-69
2022/06/05 00:28:39;;;;;;;0.70;0.20;;;21.50;1.00;;;;;;5032265;28;20455;-70
2022/06/05 00:31:18;;;;;;;0.70;0.20;;;21.50;1.00;;;;;;5008905;28;20483;-70
2022/06/05 00:33:46;;;;;;;0.83;0.60;;;21.50;1.00;;;;;;5018850;28;20465;-70
2022/06/05 00:36:27;;;;;;;0.70;0.20;;;21.50;1.00;;;;;;5010809;28;20539;-72
2022/06/05 00:39:05;;;;;;;0.70;0.10;;;21.50;1.00;;;;;;5013620;28;20483;-71
2022/06/05 00:41:48;;;;;;;0.70;0.10;;;21.50;1.00;;;;;;5013936;28;20443;-69
2022/06/05 00:44:27;;;;;;;0.70;0.10;;;21.50;1.00;;;;;;5014128;28;20436;-69
2022/06/05 00:46:57;;;;;;;0.70;0.13;;;21.50;1.00;;;;;;5013700;28;20450;-69
2022/06/05 00:49:37;;;;;;;0.70;0.10;;;21.50;1.00;;;;;;5013918;28;20511;-70
2022/06/05 00:52:07;;;;;;;0.70;0.10;;;21.50;1.00;;;;;;5013801;28;20452;-70
2022/06/05 00:54:35;;;;;;;0.70;0.10;;;21.50;1.00;;;;;;5013905;28;20489;-70
2022/06/05 00:57:08;;;;;;;0.70;0.13;;;21.50;1.00;;;;;;5013642;28;20451;-70
2022/06/05 00:59:37;;;;;;;0.70;0.10;;;21.50;1.00;;;;;;5013451;28;20488;-69
2022/06/05 01:02:07;;;;;;;0.70;0.10;;;21.50;1.00;;;;;;5013797;28;20443;-69
2022/06/05 01:04:36;;;;;;;0.70;0.20;;;21.50;1.00;;;;;;5013249;28;20463;-68
2022/06/05 01:07:05;;;;;;;0.70;0.10;;;21.50;1.00;;;;;;5012975;28;20487;-69
2022/06/05 01:09:33;;;;;;;0.70;0.20;;;21.50;1.00;;;;;;5013471;28;20472;-71
2022/06/05 01:12:09;;;;;;;0.70;0.10;;;21.40;1.00;;;;;;5013952;28;20448;-71
2022/06/05 01:14:48;;;;;;;0.70;0.10;;;21.40;1.00;;;;;;5013557;28;20467;-70
2022/06/05 01:17:25;;;;;;;0.70;0.10;;;21.40;1.00;;;;;;5013255;28;20436;-71
2022/06/05 01:20:10;;;;;;;0.70;0.20;;;21.30;1.00;;;;;;5013251;28;20982;-69
2022/06/05 01:23:14;;;;;;;0.70;0.20;;;21.20;1.00;;;;;;5013623;28;20444;-69
2022/06/05 01:25:54;;;;;;;0.70;0.10;;;21.20;1.00;;;;;;4986509;28;20448;-69
2022/06/05 01:28:25;;;;;;;0.70;0.10;;;21.10;1.00;;;;;;5027401;28;20515;-69
2022/06/05 01:30:58;;;;;;;0.70;0.10;;;21.00;1.00;;;;;;5032562;28;20819;-68
2022/06/05 01:33:28;;;;;;;0.70;0.10;;;21.00;1.00;;;;;;5016636;28;20602;-69
2022/06/05 01:36:07;;;;;;;0.80;0.67;;;21.00;1.00;;;;;;5010442;28;20459;-70
2022/06/05 01:38:44;;;;;;;0.70;0.20;;;20.90;1.00;;;;;;5010523;28;20464;-70
2022/06/05 01:41:16;;;;;;;0.70;0.10;;;20.90;1.00;;;;;;5010775;28;20439;-69
2022/06/05 01:43:49;;;;;;;0.70;0.20;;;20.90;1.00;;;;;;5010616;28;20475;-70
2022/06/05 01:46:22;;;;;;;0.70;0.33;;;20.80;1.00;;;;;;5010132;28;20847;-69
2022/06/05 01:48:55;;;;;;;0.70;0.20;;;20.70;1.00;;;;;;5011612;28;20463;-69
2022/06/05 01:51:29;;;;;;;0.70;0.10;;;20.70;1.00;;;;;;5012430;28;20448;-69
2022/06/05 01:54:01;;;;;;;1.07;0.97;;;20.60;1.00;;;;;;5012244;28;20448;-69
2022/06/05 01:56:35;;;;;;;0.70;0.20;;;20.50;1.00;;;;;;5012149;28;20926;-70
2022/06/05 01:59:09;;;;;;;0.70;0.10;;;20.40;1.00;;;;;;5012422;28;20488;-69
2022/06/05 02:01:41;;;;;;;0.90;0.47;;;20.40;1.00;;;;;;5012252;28;20448;-70
2022/06/05 02:04:13;;;;;;;0.93;0.83;;;20.30;1.00;;;;;;5011797;28;20471;-69
2022/06/05 02:06:45;;;;;;;0.70;0.10;;;20.30;1.00;;;;;;5011612;28;20445;-70
2022/06/05 02:09:18;;;;;;;0.80;0.43;;;20.20;1.00;;;;;;5011284;28;20472;-69
2022/06/05 02:11:48;;;;;;;0.80;0.67;;;20.20;1.00;;;;;;5012255;28;20452;-69
2022/06/05 02:14:16;;;;;;;0.90;0.73;;;20.20;1.00;;;;;;5007159;28;20460;-69
2022/06/05 02:16:44;;;;;;;0.70;0.20;;;20.10;1.00;;;;;;5016491;28;20937;-69
2022/06/05 02:19:19;;;;;;;0.70;0.30;;;20.20;1.00;;;;;;5008973;28;20488;-68
2022/06/05 02:21:47;;;;;;;0.70;0.47;;;20.20;1.00;;;;;;5011557;28;20847;-71
2022/06/05 02:24:16;;;;;;;0.70;0.20;;;20.10;1.00;;;;;;5011828;28;20459;-70
2022/06/05 02:26:43;;;;;;;0.60;0.10;;;20.10;1.00;;;;;;5011443;28;20440;-70
2022/06/05 02:29:15;;;;;;;1.07;0.97;;;20.10;1.00;;;;;;5012689;28;20464;-70
2022/06/05 02:31:54;;;;;;;1.83;1.27;;;20.20;1.00;;;;;;5005331;28;20449;-70
2022/06/05 02:34:32;;;;;;;2.03;1.07;;;20.00;1.00;;;;;;5008848;28;20460;-69
2022/06/05 02:37:07;;;;;;;0.70;0.20;;;20.00;1.00;;;;;;5011284;28;20810;-69
2022/06/05 02:39:43;;;;;;;0.70;0.10;;;20.00;1.00;;;;;;5002853;28;20488;-69
2022/06/05 02:42:20;;;;;;;0.70;0.10;;;20.00;1.00;;;;;;5007541;28;20440;-70
2022/06/05 02:44:57;;;;;;;0.80;0.50;;;19.90;1.00;;;;;;5008291;28;20436;-69
2022/06/05 02:47:33;;;;;;;0.90;0.73;;;19.90;1.00;;;;;;5011243;28;20443;-70
2022/06/05 02:50:11;;;;;;;0.67;0.20;;;19.90;1.00;;;;;;5008163;28;20456;-69
2022/06/05 02:52:41;;;;;;;0.70;0.30;;;19.90;1.00;;;;;;5004204;28;20463;-70
2022/06/05 02:55:12;;;;;;;1.63;0.83;;;19.90;1.00;;;;;;5011047;28;20448;-70
2022/06/05 02:57:41;;;;;;;0.70;0.20;;;19.80;1.00;;;;;;5011199;28;20919;-70
2022/06/05 03:00:14;;;;;;;0.70;0.40;;;19.70;1.00;;;;;;5008747;28;20509;-69
2022/06/05 03:05:27;;;;;;;0.60;0.10;;;19.70;1.00;;;;;;4992034;28;20809;-70
2022/06/05 03:07:55;;;;;;;0.93;0.30;;;19.70;1.00;;;;;;4991541;28;20452;-69
2022/06/05 03:10:23;;;;;;;0.70;0.20;;;19.70;1.00;;;;;;5027810;23;20503;-68
2022/06/05 03:12:51;;;;;;;0.70;0.20;;;19.70;1.00;;;;;;5010690;28;20440;-67
2022/06/05 03:15:21;;;;;;;0.67;0.10;;;19.70;1.00;;;;;;5010991;28;20448;-68
2022/06/05 03:17:49;;;;;;;0.60;0.20;;;19.90;1.00;;;;;;5010603;28;20467;-69
2022/06/05 03:20:17;;;;;;;1.37;0.50;;;19.90;1.00;;;;;;5019841;28;20483;-68
2022/06/05 03:22:46;;;;;;;0.80;0.30;;;19.90;1.00;;;;;;5031224;28;20545;-68
2022/06/05 03:25:18;;;;;;;0.70;0.20;;;19.90;1.00;;;;;;5030740;28;20454;-69
2022/06/05 03:27:46;;;;;;;0.70;0.20;;;19.80;1.00;;;;;;5043328;28;20806;-68
2022/06/05 03:30:15;;;;;;;0.80;0.30;;;19.90;1.00;;;;;;5051144;28;20463;-68
2022/06/05 03:32:46;;;;;;;0.80;0.30;;;19.90;1.00;;;;;;5051474;28;20466;-68
2022/06/05 03:35:15;;;;;;;0.70;0.20;;;19.80;1.00;;;;;;5051347;28;20449;-68
2022/06/05 03:37:42;;;;;;;0.70;0.20;;;19.80;1.00;;;;;;5051900;28;20447;-69
2022/06/05 03:40:14;;;;;;;0.60;0.10;;;20.00;1.00;;;;;;5051769;28;20577;-68
2022/06/05 03:42:43;;;;;;;0.90;0.63;;;20.00;1.00;;;;;;5033544;28;20436;-68
2022/06/05 03:45:13;;;;;;;0.70;0.13;;;20.00;1.00;;;;;;5033549;28;20647;-67
2022/06/05 03:47:41;;;;;;;0.70;0.20;;;20.10;1.00;;;;;;5033835;28;20444;-68
2022/06/05 03:50:14;;;;;;;0.60;0.20;;;20.10;1.00;;;;;;5034994;28;20811;-68
2022/06/05 03:52:42;;;;;;;0.70;0.13;;;20.10;1.00;;;;;;5034090;28;20450;-68
2022/06/05 03:55:11;;;;;;;1.60;1.50;;;20.10;1.00;;;;;;5031838;28;20452;-67
2022/06/05 03:57:39;;;;;;;0.60;0.10;;;20.10;1.00;;;;;;5033979;28;20807;-67
2022/06/05 04:00:09;;;;;;;0.70;0.30;;;20.10;1.00;;;;;;5036284;28;20486;-68
2022/06/05 04:02:37;;;;;;;0.70;0.10;;;20.10;1.00;;;;;;5036799;28;20475;-68
2022/06/05 04:05:07;;;;;;;0.90;0.50;;;20.10;1.00;;;;;;5035094;28;21031;-69
2022/06/05 04:07:36;;;;;;;0.60;0.30;;;20.00;1.00;;;;;;5034487;28;20481;-68
2022/06/05 04:10:05;;;;;;;0.60;0.10;;;20.00;1.00;;;;;;5034414;28;20477;-68
2022/06/05 04:12:33;;;;;;;0.60;0.10;;;20.00;1.00;;;;;;5034929;28;20956;-68
2022/06/05 04:15:01;;;;;;;0.80;0.50;;;19.90;1.00;;;;;;5034679;28;20443;-69
2022/06/05 04:17:29;;;;;;;0.60;0.10;;;19.90;1.00;;;;;;5034043;28;20798;-68
2022/06/05 04:19:57;;;;;;;0.70;0.10;;;19.80;1.00;;;;;;5034084;28;20486;-68
2022/06/05 04:22:25;;;;;;;0.60;0.10;;;19.80;1.00;;;;;;5031654;28;20469;-68
2022/06/05 04:24:54;;;;;;;2.43;2.33;;;19.80;1.00;;;;;;5033698;28;20443;-69
2022/06/05 04:27:22;;;;;;;0.67;0.10;;;19.90;1.00;;;;;;5042993;28;20457;-67
2022/06/05 04:29:49;;;;;;;0.60;0.10;;;19.80;1.00;;;;;;5053692;28;20465;-68
2022/06/05 04:32:17;;;;;;;0.60;0.20;;;19.80;1.00;;;;;;5053775;28;20636;-67
2022/06/05 04:34:45;;;;;;;0.60;0.10;;;19.80;1.00;;;;;;5053422;28;20466;-69
2022/06/05 04:37:13;;;;;;;0.60;0.10;;;19.80;1.00;;;;;;5053238;28;20450;-68
2022/06/05 04:39:41;;;;;;;0.60;0.10;;;19.90;1.00;;;;;;5053400;28;20462;-67
2022/06/05 04:42:11;;;;;;;0.60;0.10;;;19.90;1.00;;;;;;5053564;28;20483;-68
2022/06/05 04:44:38;;;;;;;0.60;0.10;;;19.90;1.00;;;;;;5053293;28;20820;-68
2022/06/05 04:47:06;;;;;;;0.60;0.10;;;20.00;1.00;;;;;;5053293;28;20439;-68
2022/06/05 04:49:35;;;;;;;0.60;0.10;;;20.00;1.00;;;;;;5053057;28;20668;-68
2022/06/05 04:52:04;;;;;;;0.60;0.10;;;20.00;1.00;;;;;;5053639;28;20445;-68
2022/06/05 04:54:31;;;;;;;0.60;0.20;;;20.00;1.00;;;;;;5053525;28;20540;-67
2022/06/05 04:56:59;;;;;;;0.60;0.20;;;20.00;1.00;;;;;;5053096;28;20479;-68
2022/06/05 04:59:28;;;;;;;0.60;0.10;;;20.00;1.00;;;;;;5053806;28;20454;-69
2022/06/05 05:01:56;;;;;;;0.60;0.10;;;20.00;1.00;;;;;;5053471;28;20974;-68
2022/06/05 05:04:25;;;;;;;0.60;0.10;;;20.00;1.00;;;;;;5053305;28;20449;-69
2022/06/05 05:06:53;;;;;;;0.60;0.10;;;20.00;1.00;;;;;;5052807;28;20468;-68
2022/06/05 05:09:21;;;;;;;0.60;0.10;;;20.10;1.00;;;;;;5051728;28;20443;-68
2022/06/05 05:11:49;;;;;;;0.60;0.10;;;20.10;1.00;;;;;;5053254;28;20438;-68
2022/06/05 05:14:17;;;;;;;0.60;0.20;;;20.10;1.00;;;;;;5052570;28;20448;-67
2022/06/05 05:16:46;;;;;;;0.60;0.20;;;20.20;1.00;;;;;;5052400;28;20447;-67
2022/06/05 05:19:14;;;;;;;0.60;0.20;;;20.10;1.00;;;;;;5053160;28;20508;-69
2022/06/05 05:21:41;;;;;;;0.60;0.20;;;20.10;1.00;;;;;;5052834;28;20474;-69
2022/06/05 05:24:09;;;;;;;0.70;0.10;;;20.10;1.00;;;;;;5052922;28;20442;-68
2022/06/05 05:26:37;;;;;;;0.63;0.10;;;20.10;1.00;;;;;;5049282;28;20451;-69
2022/06/05 05:29:06;;;;;;;0.60;0.17;;;20.10;1.00;;;;;;5032857;28;20443;-68
2022/06/05 05:31:36;;;;;;;0.60;0.10;;;20.10;1.00;;;;;;5032702;28;21019;-69
2022/06/05 05:34:06;;;;;;;0.60;0.10;;;20.10;1.00;;;;;;5032568;28;20455;-69
2022/06/05 05:36:35;;;;;;;0.60;0.10;;;20.10;1.00;;;;;;5032413;28;20535;-68
2022/06/05 05:42:05;;;;;;;0.60;0.10;;;20.20;1.00;;;;;;5033297;28;20479;-69
2022/06/05 05:44:35;;;;;;;0.60;0.20;;;20.20;1.00;;;;;;5032808;28;20448;-70
2022/06/05 05:47:06;;;;;;;0.60;0.10;;;20.20;1.00;;;;;;5032461;28;20440;-69
2022/06/05 05:49:36;;;;;;;0.60;0.20;;;20.20;1.00;;;;;;5032270;28;20463;-68
2022/06/05 05:52:04;;;;;;;0.60;0.20;;;20.20;1.00;;;;;;5032328;28;20818;-68
2022/06/05 05:54:33;;;;;;;1.00;0.57;;;20.10;1.00;;;;;;5032063;28;20439;-70
2022/06/05 05:57:02;;;;;;;0.70;0.30;;;20.10;1.00;;;;;;5032063;28;20458;-68
2022/06/05 05:59:29;;;;;;;0.60;0.10;;;19.90;1.00;;;;;;5032145;28;20459;-67
2022/06/05 06:01:57;;;;;;;0.60;0.10;;;19.90;1.00;;;;;;5032377;28;20530;-68
2022/06/05 06:04:25;;;;;;;0.60;0.10;;;20.00;1.00;;;;;;5031988;28;20446;-67
2022/06/05 06:06:55;;;;;;;0.60;0.10;;;20.00;1.00;;;;;;5032283;28;20479;-68
2022/06/05 06:09:23;;;;;;;0.60;0.10;;;20.10;1.00;;;;;;5031883;28;20513;-68
2022/06/05 06:11:51;;;;;;;0.70;0.20;;;20.20;1.00;;;;;;5032069;28;20444;-70
2022/06/05 06:14:19;;;;;;;0.70;0.40;;;20.20;1.00;;;;;;5030014;28;20458;-68
2022/06/05 06:16:47;;;;;;;1.20;0.40;;;;;;;;;;5031624;28;20962;-68
2022/06/05 06:19:15;;;;;;;0.60;0.10;;;20.20;1.00;;;;;;5031566;28;20486;-68
2022/06/05 06:21:43;;;;;;;1.17;1.07;;;20.10;1.00;;;;;;5031956;28;20479;-68
2022/06/05 06:24:13;;;;;;;0.60;0.10;;;20.10;1.00;;;;;;5032022;28;20452;-67
2022/06/05 06:26:42;;;;;;;0.60;0.10;;;19.90;1.00;;;;;;5031512;28;20531;-68
2022/06/05 06:29:10;;;;;;;1.27;0.63;;;19.90;1.00;;;;;;5031599;28;20547;-68
2022/06/05 06:31:39;;;;;;;0.60;0.20;;;19.90;1.00;;;;;;5031512;28;20538;-68
2022/06/05 06:34:07;;;;;;;1.43;1.33;;;19.90;1.00;;;;;;5031271;28;20459;-68
2022/06/05 06:36:35;;;;;;;0.80;0.30;;;19.80;1.00;;;;;;5029605;28;20558;-67
2022/06/05 06:39:21;;;;;;;0.70;0.40;;;19.40;1.00;;;;;;5023695;28;20539;-67
2022/06/05 06:41:49;;;;;;;0.80;0.57;;;19.40;1.00;;;;;;5031578;28;20835;-67
2022/06/05 06:44:18;;;;;;;0.70;0.30;;;19.30;1.00;;;;;;5031623;28;20447;-67
2022/06/05 06:46:46;;;;;;;1.00;0.77;;;19.20;1.00;;;;;;5031301;28;20487;-68
2022/06/05 06:49:14;;;;;;;1.43;0.70;;;19.20;1.00;;;;;;5031569;28;20454;-68
2022/06/05 06:51:43;;;;;;;0.60;0.17;;;19.20;1.00;;;;;;5031571;28;20436;-67
2022/06/05 06:54:10;;;;;;;1.13;1.03;;;19.20;1.00;;;;;;5031199;28;20458;-68
2022/06/05 06:56:40;;;;;;;0.70;0.30;;;19.20;1.00;;;;;;5030988;28;20821;-67
2022/06/05 06:59:08;;;;;;;1.57;1.07;;;19.20;1.00;;;;;;5031957;28;20443;-69
2022/06/05 07:01:36;;;;;;;0.60;0.20;;;19.20;1.00;;;;;;5032145;28;21037;-68
2022/06/05 07:04:04;;;;;;;2.53;2.43;;;19.20;1.00;;;;;;5031643;28;20450;-68
2022/06/05 07:06:33;;;;;;;0.60;0.20;;;19.30;1.00;;;;;;5031372;28;20468;-69
2022/06/05 07:09:01;;;;;;;0.60;0.20;;;19.40;1.00;;;;;;5031860;28;20462;-67
2022/06/05 07:11:29;;;;;;;0.60;0.20;;;19.50;1.00;;;;;;5031664;28;20475;-67
2022/06/05 07:13:59;;;;;;;1.27;1.00;;;19.60;1.00;;;;;;5032050;28;20444;-68
2022/06/05 07:16:27;;;;;;;0.60;0.10;;;19.80;1.00;;;;;;5031346;28;20905;-68
2022/06/05 07:18:55;;;;;;;0.60;0.13;;;19.80;1.00;;;;;;5031206;28;20813;-67
2022/06/05 07:21:24;;;;;;;0.73;0.57;;;19.90;1.00;;;;;;5031235;28;20475;-68
2022/06/05 07:23:54;;;;;;;0.60;0.17;;;20.00;1.00;;;;;;5031825;28;20521;-67
2022/06/05 07:26:25;;;;;;;0.60;0.10;;;20.00;1.00;;;;;;5031667;28;20530;-68
2022/06/05 07:28:56;;;;;;;0.60;0.30;;;20.10;1.00;;;;;;5051181;28;20439;-69
2022/06/05 07:31:29;;;;;;;0.67;0.20;;;20.20;1.00;;;;;;5051726;28;20875;-67
2022/06/05 07:33:58;;;;;;;0.60;0.17;;;20.20;1.00;;;;;;5045765;28;20466;-67
2022/06/05 07:36:27;;;;;;;0.70;0.30;;;20.30;1.00;;;;;;5037798;28;20462;-69
2022/06/05 07:38:56;;;;;;;0.70;0.20;;;20.60;1.00;;;;;;5039043;28;20455;-68
2022/06/05 07:41:27;;;;;;;0.70;0.20;;;20.70;1.00;;;;;;5037878;28;20561;-70
2022/06/05 07:43:56;;;;;;;0.70;0.30;;;20.80;1.00;;;;;;5035005;28;20510;-69
2022/06/05 07:46:26;;;;;;;0.70;0.53;;;20.80;1.00;;;;;;5035187;28;20535;-69
2022/06/05 07:48:54;;;;;;;0.80;0.40;;;20.80;1.00;;;;;;5035402;28;20452;-69
2022/06/05 07:54:30;;;;;;;0.70;0.10;;;20.80;1.00;;;;;;5033396;28;20816;-69
2022/06/05 07:57:00;;;;;;;0.70;0.10;;;20.90;1.00;;;;;;5034541;28;20439;-70
2022/06/05 07:59:30;;;;;;;0.60;0.13;;;21.00;1.00;;;;;;5035460;28;20466;-69
2022/06/05 08:02:03;;;;;;;0.70;0.20;;;21.00;1.00;;;;;;5035082;28;20438;-69
2022/06/05 08:04:32;;;;;;;0.70;0.20;;;21.10;1.00;;;;;;5035161;28;20447;-68
2022/06/05 08:07:01;;;;;;;0.70;0.20;;;21.10;1.00;;;;;;5034678;28;20542;-68
2022/06/05 08:09:29;;;;;;;0.70;0.10;;;21.20;1.00;;;;;;5034800;28;20447;-68
2022/06/05 08:11:57;;;;;;;0.70;0.20;;;21.30;1.00;;;;;;5029503;28;20947;-67
2022/06/05 08:14:25;;;;;;;0.70;0.20;;;21.40;1.00;;;;;;5026820;28;20459;-68
2022/06/05 08:16:54;;;;;;;1.80;1.70;;;21.40;1.00;;;;;;5033711;28;20443;-67
2022/06/05 08:19:24;;;;;;;0.70;0.10;;;21.50;1.00;;;;;;5034760;28;20542;-67
2022/06/05 08:21:52;;;;;;;0.70;0.13;;;21.60;1.00;;;;;;5034192;28;20451;-68
2022/06/05 08:24:22;;;;;;;0.70;0.20;;;21.60;1.00;;;;;;5033953;28;20479;-68
2022/06/05 08:26:51;;;;;;;0.70;0.10;;;21.70;1.00;;;;;;5038419;28;20549;-68
2022/06/05 08:29:19;;;;;;;0.90;0.37;;;21.70;1.00;;;;;;5053460;28;20500;-69
2022/06/05 08:31:48;;;;;;;0.70;0.20;;;21.70;1.00;;;;;;5053970;28;20449;-69
2022/06/05 08:34:17;;;;;;;0.70;0.20;;;;;;;;;;5053551;28;20945;-68
2022/06/05 08:36:46;;;;;;;0.70;0.20;;;21.70;1.00;;;;;;5038456;28;20550;-71
2022/06/05 08:42:14;;;;;;;0.70;0.10;;;21.70;1.00;;;;;;5033778;28;20580;-70
2022/06/05 08:44:46;;;;;;;0.70;0.13;;;21.60;1.00;;;;;;5033572;28;20934;-71
2022/06/05 08:47:20;;;;;;;0.70;0.20;;;21.60;1.00;;;;;;5033168;28;20546;-70
2022/06/05 08:49:52;;;;;;;0.70;0.10;;;21.60;1.00;;;;;;5034339;28;20843;-70
2022/06/05 08:52:27;;;;;;;0.70;0.10;;;21.60;1.00;;;;;;5032640;28;20475;-69
2022/06/05 08:55:01;;;;;;;0.70;0.10;;;21.50;1.00;;;;;;5028739;28;20498;-70
2022/06/05 08:57:34;;;;;;;0.70;0.20;;;21.50;1.00;;;;;;5026766;28;20524;-70
2022/06/05 09:00:07;;;;;;;0.70;0.10;;;21.50;1.00;;;;;;5034201;28;20506;-70
2022/06/05 09:02:46;;;;;;;0.70;0.20;;;21.50;1.00;;;;;;5033631;28;20504;-72
2022/06/05 09:05:20;;;;;;;0.70;0.10;;;21.50;1.00;;;;;;5030164;28;20555;-72
2022/06/05 09:07:56;;;;;;;0.70;0.10;;;21.60;1.00;;;;;;5023340;28;20456;-73
2022/06/05 09:13:26;;;;;;;0.70;0.10;;;21.70;1.00;;;;;;5024854;28;21076;-69
2022/06/05 09:15:59;;;;;;;0.70;0.10;;;21.70;1.00;;;;;;5032778;28;20439;-70
2022/06/05 09:18:31;;;;;;;0.70;0.10;;;21.70;1.00;;;;;;5033121;28;20447;-71
2022/06/05 09:21:01;;;;;;;0.70;0.10;;;21.80;1.00;;;;;;5033180;28;20483;-70
2022/06/05 09:23:35;;;;;;;0.70;0.10;;;21.80;1.00;;;;;;5033328;28;20478;-71
2022/06/05 09:26:10;;;;;;;0.70;0.10;;;21.80;1.00;;;;;;5033130;28;20545;-70
2022/06/05 09:28:52;;;;;;;0.70;0.20;;;21.80;1.00;;;;;;5053371;28;20549;-70
2022/06/05 09:31:42;;;;;;;0.70;0.20;;;21.70;1.00;;;;;;5054261;28;20468;-73
2022/06/05 09:34:13;;;;;;;0.70;0.20;;;21.70;1.00;;;;;;5033669;28;20921;-73
2022/06/05 09:36:45;;;;;;;0.70;0.20;;;21.70;1.00;;;;;;5033640;28;20431;-73
2022/06/05 09:39:26;;;;;;;0.70;0.10;;;21.70;1.00;;;;;;5033281;28;20478;-73
2022/06/05 09:42:07;;;;;;;0.70;0.10;;;21.70;1.00;;;;;;5033015;28;20447;-73
2022/06/05 09:44:48;;;;;;;0.70;0.10;;;21.80;1.00;;;;;;5032440;28;20853;-72
2022/06/05 09:47:24;;;;;;;0.70;0.10;;;21.80;1.00;;;;;;5025195;28;20439;-74
2022/06/05 09:50:01;;;;;;;0.70;0.10;;;21.80;1.00;;;;;;5032735;28;20645;-72
2022/06/05 09:52:33;;;;;;;0.70;0.10;;;21.80;1.00;;;;;;5032774;28;20494;-75
2022/06/05 09:55:11;;;;;;;0.67;0.10;;;21.90;1.00;;;;;;5032133;28;20451;-73
2022/06/05 10:00:46;;;;;;;0.70;0.10;;;22.00;1.00;;;;;;5033146;28;20481;-74
2022/06/05 10:03:17;;;;;;;0.70;0.10;;;22.00;1.00;;;;;;5032941;28;20475;-73
2022/06/05 10:06:06;;;;;;;2.40;0.73;;;22.10;1.00;;;;;;5031515;28;20899;-73
2022/06/05 10:08:41;;;;;;;0.70;0.20;;;22.00;1.00;;;;;;5031804;28;20494;-74
2022/06/05 10:11:24;;;;;;;0.70;0.20;;;22.00;1.00;;;;;;5032281;28;20478;-73
2022/06/05 10:14:02;;;;;;;0.70;0.10;;;22.00;1.00;;;;;;5033040;28;20457;-72
2022/06/05 10:16:39;;;;;;;0.70;0.10;;;22.00;1.00;;;;;;5032928;28;20649;-73
2022/06/05 10:19:28;;;;;;;0.70;0.17;;;22.10;1.00;;;;;;5033039;28;20479;-72
2022/06/05 10:22:14;;;;;;;0.70;0.20;;;22.20;1.00;;;;;;5033136;28;20623;-73
2022/06/05 10:24:53;;;;;;;0.70;0.20;;;22.40;1.00;;;;;;5031947;28;20483;-73
2022/06/05 10:27:23;;;;;;;0.70;0.20;;;22.50;1.00;;;;;;5030172;28;20455;-71
2022/06/05 10:29:56;;;;;;;0.70;0.20;;;22.50;1.00;;;;;;5033416;28;20456;-73
2022/06/05 10:32:33;;;;;;;0.70;0.10;;;22.60;1.00;;;;;;5033146;28;20821;-72
2022/06/05 10:35:11;;;;;;;0.70;0.10;;;22.60;1.00;;;;;;5032613;28;20486;-73
2022/06/05 10:37:45;;;;;;;0.70;0.20;;;22.70;1.00;;;;;;5032894;28;20443;-73
2022/06/05 10:40:19;;;;;;;0.70;0.10;;;22.90;1.00;;;;;;5031347;28;20996;-73
2022/06/05 10:42:55;;;;;;;0.70;0.10;;;22.90;1.00;;;;;;5028803;28;20443;-73
2022/06/05 10:45:34;;;;;;;0.70;0.27;;;23.00;1.00;;;;;;5024148;28;20474;-72
2022/06/05 10:48:11;;;;;;;0.70;0.20;;;23.10;1.00;;;;;;5031613;28;20451;-73
2022/06/05 10:50:48;;;;;;;0.70;0.20;;;23.30;1.00;;;;;;5032185;28;21016;-73
2022/06/05 10:53:27;;;;;;;0.70;0.10;;;23.30;1.00;;;;;;5032374;28;20446;-72
2022/06/05 10:56:11;;;;;;;0.70;0.20;;;23.40;1.00;;;;;;5028243;28;20919;-73
2022/06/05 10:58:44;;;;;;;0.70;0.20;;;23.50;1.00;;;;;;5033129;28;20450;-72
2022/06/05 11:01:36;;;;;;;0.70;0.10;;;23.50;99.90;;;;;;5030786;28;20486;-72
2022/06/05 11:04:17;;;;;;;0.70;0.20;;;23.50;99.90;;;;;;5024655;28;20917;-73
2022/06/05 11:06:53;;;;;;;1.43;0.63;;;23.60;1.00;;;;;;5031198;28;20475;-73
2022/06/05 11:09:43;;;;;;;0.70;0.20;;;23.60;99.90;;;;;;5026096;28;20482;-73
2022/06/05 11:15:16;;;;;;;0.70;0.20;;;23.70;99.90;;;;;;5026428;28;20440;-73
2022/06/05 11:17:52;;;;;;;0.70;0.20;;;23.80;99.90;;;;;;5031983;28;20454;-73
2022/06/05 11:20:23;;;;;;;0.70;0.10;;;23.90;99.90;;;;;;5032773;28;20687;-75
2022/06/05 11:22:56;;;;;;;0.70;0.37;;;24.00;99.90;;;;;;5032443;28;20882;-73
2022/06/05 11:25:29;;;;;;;0.70;0.20;;;24.00;99.90;;;;;;5042062;28;20499;-74
2022/06/05 11:28:35;;;;;;;0.70;0.10;;;24.00;99.90;;;;;;5048304;28;20444;-75
2022/06/05 11:31:13;;;;;;;0.70;0.20;;;23.90;99.90;;;;;;5028249;28;20489;-73
2022/06/05 11:33:51;;;;;;;0.70;0.20;;;23.90;99.90;;;;;;5033058;28;20531;-76
2022/06/05 11:36:24;;;;;;;0.70;0.10;;;23.90;99.90;;;;;;5032161;28;20515;-75
2022/06/05 11:39:06;;;;;;;0.70;0.10;;;23.80;99.90;;;;;;5031963;28;20416;-75
2022/06/05 11:41:40;;;;;;;0.70;0.10;;;23.80;99.90;;;;;;5031982;28;20462;-75
2022/06/05 11:44:22;;;;;;;0.70;0.10;;;23.80;99.90;;;;;;5012765;28;20479;-76
2022/06/05 11:46:58;;;;;;;0.70;0.10;;;23.80;99.90;;;;;;5011802;28;20452;-76
2022/06/05 11:49:38;;;;;;;0.70;0.10;;;23.80;99.90;;;;;;5012527;28;20811;-75
2022/06/05 11:52:16;;;;;;;0.80;0.30;;;23.80;99.90;;;;;;5011396;28;20455;-73
2022/06/05 11:54:52;;;;;;;0.70;0.10;;;23.80;99.90;;;;;;5011273;28;20444;-73
2022/06/05 11:57:25;;;;;;;0.70;0.20;;;23.80;99.90;;;;;;5011080;28;20927;-73
2022/06/05 12:00:02;;;;;;;0.80;0.57;;;23.80;99.90;;;;;;5036209;23;20630;-72
2022/06/05 12:02:43;;;;;;;0.70;0.10;;;23.70;99.90;;;;;;5021322;28;20762;-71
2022/06/05 12:05:18;;;;;;;0.70;0.13;;;23.70;99.90;;;;;;5028417;28;20558;-72
2022/06/05 12:07:49;;;;;;;0.70;0.10;;;23.60;99.90;;;;;;5029725;28;20439;-71
2022/06/05 12:10:23;;;;;;;0.70;0.10;;;23.60;99.90;;;;;;5030387;28;20494;-72
2022/06/05 12:13:02;;;;;;;0.70;0.20;;;23.60;99.90;;;;;;5030729;28;20459;-73
2022/06/05 12:15:38;;;;;;;0.70;0.20;;;23.60;99.90;;;;;;5029955;28;20435;-72
2022/06/05 12:18:13;;;;;;;0.70;0.40;;;23.60;99.90;;;;;;5013014;28;20562;-70
2022/06/05 12:20:47;;;;;;;0.70;0.10;;;23.60;99.90;;;;;;5004696;28;20969;-70
2022/06/05 12:23:19;;;;;;;0.70;0.10;;;23.60;99.90;;;;;;5002713;28;20447;-71
2022/06/05 12:25:53;;;;;;;0.70;0.10;;;23.60;99.90;;;;;;5005652;28;20537;-73
2022/06/05 12:28:27;;;;;;;0.70;0.10;;;23.70;99.90;;;;;;5003619;28;20461;-71
2022/06/05 12:31:04;;;;;;;0.70;0.30;;;23.80;99.90;;;;;;5004191;28;20811;-72
2022/06/05 12:33:42;;;;;;;0.70;0.10;;;23.80;99.90;;;;;;5016710;28;20447;-72
2022/06/05 12:36:15;;;;;;;0.70;0.10;;;23.70;99.90;;;;;;5012284;28;20956;-73
2022/06/05 12:38:49;;;;;;;0.70;0.20;;;23.60;99.90;;;;;;5028528;28;20476;-72
2022/06/05 12:41:22;;;;;;;0.70;0.20;;;23.50;99.90;;;;;;5009515;28;20477;-75
2022/06/05 12:44:01;;;;;;;0.70;0.10;;;23.60;99.90;;;;;;5017486;28;20450;-74
2022/06/05 12:46:36;;;;;;;0.70;0.10;;;23.60;99.90;;;;;;5019997;28;20483;-73
2022/06/05 12:49:23;;;;;;;0.70;0.13;;;23.50;99.90;;;;;;5033703;28;20450;-72
2022/06/05 12:52:03;;;;;;;0.70;0.10;;;23.50;99.90;;;;;;5011381;28;20457;-73
2022/06/05 12:54:36;;;;;;;0.70;0.10;;;23.50;99.90;;;;;;5014306;28;20436;-73
2022/06/05 12:57:29;;;;;;;0.90;0.50;;;23.50;99.90;;;;;;5033204;28;20505;-72
2022/06/05 13:00:00;;;;;;;0.70;0.20;;;23.50;99.90;;;;;;5019398;28;20943;-73
2022/06/05 13:02:34;;;;;;;0.70;0.20;;;23.50;1.00;;;;;;5013679;28;20444;-73
2022/06/05 13:05:14;;;;;;;0.70;0.20;;;23.40;1.00;;;;;;5013262;28;20486;-73
2022/06/05 13:07:50;;;;;;;0.70;0.10;;;23.40;1.00;;;;;;5013235;28;20456;-73
2022/06/05 13:10:24;;;;;;;0.70;0.20;;;23.30;1.00;;;;;;5013400;28;20464;-72
2022/06/05 13:13:01;;;;;;;0.70;0.13;;;23.30;1.00;;;;;;5009291;28;20467;-73
2022/06/05 13:15:32;;;;;;;0.70;0.20;;;23.30;1.00;;;;;;5003571;28;20931;-74
2022/06/05 13:18:06;;;;;;;0.70;0.10;;;23.30;1.00;;;;;;5004406;28;20453;-73
2022/06/05 13:20:40;;;;;;;0.70;0.10;;;23.30;1.00;;;;;;5013419;28;20513;-73
2022/06/05 13:23:18;;;;;;;0.70;0.10;;;23.30;1.00;;;;;;5013388;28;20466;-72
2022/06/05 13:25:55;;;;;;;0.70;0.13;;;23.30;1.00;;;;;;5012936;28;20487;-72
2022/06/05 13:28:41;;;;;;;0.70;0.10;;;23.30;1.00;;;;;;4995605;28;20449;-73
2022/06/05 13:31:23;;;;;;;0.70;0.20;;;23.30;1.00;;;;;;4993446;28;20486;-75
2022/06/05 13:34:01;;;;;;;0.70;0.13;;;23.30;1.00;;;;;;4993470;28;20970;-73
2022/06/05 13:36:36;;;;;;;0.70;0.17;;;23.30;1.00;;;;;;4993554;28;20449;-73
2022/06/05 13:39:10;;;;;;;2.30;2.20;;;23.20;1.00;;;;;;4995049;28;20440;-73
2022/06/05 13:41:43;;;;;;;0.70;0.20;;;23.20;1.00;;;;;;4995515;28;20435;-74
2022/06/05 13:44:16;;;;;;;0.70;0.20;;;23.30;1.00;;;;;;4992831;28;20536;-74